Terminal Aerodrome Forecast
Issued by NWS San Angelo, TX

Home | Current Version | Previous Version | Text Only | Print | Product List | Glossary On
Versions: 1 2 3 4 5 6 7 8 9 10 11 12 13 14 15 16 17 18 19 20 21
000
FTUS44 KSJT 192300
TAFABI
TAF
KABI 192332Z 2000/2024 14010KT P6SM SCT060 BKN250
     FM201200 16011KT P6SM VCSH BKN018
     FM201500 16012KT P6SM VCTS BKN020CB
     FM202100 17015KT P6SM BKN035=

USA.gov is the U.S. government's official web portal to all federal, state and local government web resources and services.